createdAt,value
2022-11-20T00:00:43.440Z,98922.09
2022-11-20T00:06:45.333Z,98911.34
2022-11-20T00:12:47.236Z,98909.59
2022-11-20T00:19:02.255Z,98909.84
2022-11-20T00:25:04.641Z,98911.44
2022-11-20T00:31:31.647Z,98914.94
2022-11-20T00:37:33.598Z,98909.66
2022-11-20T00:43:44.002Z,98907.03
2022-11-20T00:49:45.934Z,98914.88
2022-11-20T00:56:06.080Z,98915.72
2022-11-20T01:02:08.042Z,98907.88
2022-11-20T01:08:10.075Z,98910.13
2022-11-20T01:14:19.643Z,98910.34
2022-11-20T01:20:21.575Z,98906.66
2022-11-20T01:26:34.335Z,98903.81
2022-11-20T01:32:36.250Z,98892.16
2022-11-20T01:38:38.854Z,98891.41
2022-11-20T01:44:57.413Z,98866.34
2022-11-20T01:51:00.630Z,98860.22
2022-11-20T01:57:07.179Z,98849.16
2022-11-20T02:03:14.904Z,98858.44
2022-11-20T02:09:17.049Z,98859.41
2022-11-20T02:15:19.029Z,98850.09
2022-11-20T02:21:29.605Z,98846.44
2022-11-20T02:27:31.549Z,98848.66
2022-11-20T02:33:33.444Z,98840.81
2022-11-20T02:39:48.368Z,98848.28
2022-11-20T02:45:53.119Z,98848.19
2022-11-20T02:51:55.087Z,98840.66
2022-11-20T02:57:57.186Z,98835.22
2022-11-20T03:03:59.113Z,98832.41
2022-11-20T03:10:01.045Z,98844.13
2022-11-20T03:16:15.609Z,98846.19
2022-11-20T03:22:17.506Z,98840.91
2022-11-20T03:28:19.406Z,98834.84
2022-11-20T03:34:21.445Z,98836.47
2022-11-20T03:40:23.325Z,98838.75
2022-11-20T03:46:26.802Z,98835.38
2022-11-20T03:58:45.135Z,98811.31
2022-11-20T04:04:47.125Z,98803.28
2022-11-20T04:10:58.145Z,98801.53
2022-11-20T04:17:00.070Z,98795.44
2022-11-20T04:23:01.966Z,98806.84
2022-11-20T04:29:06.657Z,98792.25
2022-11-20T04:35:16.181Z,98788.69
2022-11-20T04:41:21.595Z,98793.91
2022-11-20T04:47:24.189Z,98792.63
2022-11-20T04:53:32.416Z,98793.56
2022-11-20T04:59:34.309Z,98799.34
2022-11-20T05:05:36.550Z,98792.75
2022-11-20T05:11:38.503Z,98790.84
2022-11-20T05:17:40.399Z,98790.22
2022-11-20T05:23:43.501Z,98802.22
2022-11-20T05:29:45.443Z,98793.06
2022-11-20T05:35:47.550Z,98790.97
2022-11-20T05:42:12.687Z,98798.06
2022-11-20T05:48:14.601Z,98798.88
2022-11-20T05:54:28.656Z,98782.56
2022-11-20T06:00:30.608Z,98792.88
2022-11-20T06:06:40.831Z,98793.22
2022-11-20T06:12:42.828Z,98796.44
2022-11-20T06:18:45.241Z,98791.56
2022-11-20T06:24:47.370Z,98788.06
2022-11-20T06:30:49.300Z,98789.91
2022-11-20T06:36:51.258Z,98786.38
2022-11-20T06:42:55.839Z,98774.25
2022-11-20T06:48:59.032Z,98783.13
2022-11-20T06:55:13.748Z,98783.88
2022-11-20T07:01:16.327Z,98770.50
2022-11-20T07:07:18.326Z,98769.34
2022-11-20T07:13:20.279Z,98763.72
2022-11-20T07:19:22.428Z,98774.66
2022-11-20T07:25:26.365Z,98784.44
2022-11-20T07:31:28.261Z,98783.28
2022-11-20T07:37:30.181Z,98777.94
2022-11-20T07:43:34.834Z,98776.81
2022-11-20T07:49:40.333Z,98787.78
2022-11-20T07:55:42.205Z,98788.66
2022-11-20T08:01:44.439Z,98780.47
2022-11-20T08:07:46.458Z,98796.78
2022-11-20T08:14:07.357Z,98811.50
2022-11-20T08:20:10.254Z,98813.75
2022-11-20T08:26:12.277Z,98805.16
2022-11-20T08:32:14.217Z,98806.75
2022-11-20T08:38:16.123Z,98816.53
2022-11-20T08:44:18.454Z,98816.44
2022-11-20T08:50:24.217Z,98821.09
2022-11-20T08:56:26.508Z,98814.69
2022-11-20T09:02:28.543Z,98818.38
2022-11-20T09:08:40.594Z,98813.63
2022-11-20T09:14:43.153Z,98813.03
2022-11-20T09:20:48.320Z,98804.53
2022-11-20T09:26:50.318Z,98800.22
2022-11-20T09:33:04.784Z,98787.97
2022-11-20T09:39:06.695Z,98793.13
2022-11-20T09:45:45.427Z,98784.19
2022-11-20T09:52:55.175Z,98788.72
2022-11-20T09:59:15.873Z,98774.22
2022-11-20T10:05:31.153Z,98767.03
2022-11-20T10:12:06.835Z,98760.84
2022-11-20T10:18:32.723Z,98762.53
2022-11-20T10:25:11.547Z,98765.59
2022-11-20T10:31:34.082Z,98754.56
2022-11-20T10:37:42.124Z,98761.38
2022-11-20T10:44:06.554Z,98752.53
2022-11-20T10:50:22.284Z,98752.63
2022-11-20T10:56:48.319Z,98746.69
2022-11-20T11:02:58.387Z,98743.47
2022-11-20T11:09:11.480Z,98732.53
2022-11-20T11:15:27.693Z,98727.41
2022-11-20T11:21:42.208Z,98708.78
2022-11-20T11:27:49.080Z,98686.72
2022-11-20T11:33:52.348Z,98674.13
2022-11-20T11:40:16.402Z,98664.56
2022-11-20T11:46:26.957Z,98677.66
2022-11-20T11:52:30.637Z,98681.53
2022-11-20T11:58:46.194Z,98668.63
2022-11-20T12:04:58.678Z,98672.16
2022-11-20T12:11:17.885Z,98655.75
2022-11-20T12:17:20.065Z,98644.91
2022-11-20T12:23:51.005Z,98651.31
2022-11-20T12:30:12.414Z,98646.19
2022-11-20T12:36:19.938Z,98647.13
2022-11-20T12:43:14.822Z,98644.13
2022-11-20T12:49:48.256Z,98642.31
2022-11-20T12:56:40.280Z,98643.63
2022-11-20T13:03:00.187Z,98622.13
2022-11-20T13:09:03.219Z,98616.38
2022-11-20T13:15:49.166Z,98618.03
2022-11-20T13:21:51.900Z,98602.63
2022-11-20T13:28:07.842Z,98611.13
2022-11-20T13:34:34.078Z,98621.56
2022-11-20T13:40:56.392Z,98615.44
2022-11-20T13:46:58.589Z,98600.47
2022-11-20T13:53:38.168Z,98598.44
2022-11-20T14:00:18.918Z,98592.53
2022-11-20T14:06:35.697Z,98595.31
2022-11-20T14:12:40.205Z,98589.91
2022-11-20T14:18:42.145Z,98579.91
2022-11-20T14:24:44.116Z,98585.34
2022-11-20T14:30:49.318Z,98580.97
2022-11-20T14:36:59.843Z,98577.38
2022-11-20T14:43:29.639Z,98571.41
2022-11-20T14:49:32.992Z,98563.31
2022-11-20T14:55:38.379Z,98563.91
2022-11-20T15:02:11.809Z,98555.75
2022-11-20T15:08:15.228Z,98548.84
2022-11-20T15:14:17.160Z,98541.84
2022-11-20T15:20:21.346Z,98530.09
2022-11-20T15:26:27.690Z,98532.75
2022-11-20T15:32:29.641Z,98530.94
2022-11-20T15:38:31.585Z,98510.06
2022-11-20T15:44:33.472Z,98503.44
2022-11-20T15:50:42.063Z,98502.19
2022-11-20T15:56:44.140Z,98505.78
2022-11-20T16:02:46.771Z,98495.78
2022-11-20T16:08:48.714Z,98493.84
2022-11-20T16:15:13.719Z,98480.00
2022-11-20T16:21:15.927Z,98477.44
2022-11-20T16:27:17.815Z,98476.91
2022-11-20T16:33:19.828Z,98478.09
2022-11-20T16:39:23.944Z,98477.94
2022-11-20T16:45:34.065Z,98458.78
2022-11-20T16:51:36.649Z,98466.66
2022-11-20T16:57:38.883Z,98467.88
2022-11-20T17:03:53.815Z,98446.56
2022-11-20T17:09:55.939Z,98440.78
2022-11-20T17:16:16.143Z,98422.72
2022-11-20T17:22:18.078Z,98426.47
2022-11-20T17:28:19.987Z,98407.34
2022-11-20T17:34:34.080Z,98416.28
2022-11-20T17:40:35.990Z,98407.69
2022-11-20T17:46:38.444Z,98400.38
2022-11-20T17:58:57.681Z,98384.47
2022-11-20T18:04:59.599Z,98363.63
2022-11-20T18:11:12.540Z,98358.06
2022-11-20T18:17:16.282Z,98357.28
2022-11-20T18:23:18.213Z,98342.66
2022-11-20T18:29:20.130Z,98345.38
2022-11-20T18:35:23.172Z,98338.75
2022-11-20T18:41:47.223Z,98324.75
2022-11-20T18:47:58.395Z,98321.13
2022-11-20T18:54:01.209Z,98296.38
2022-11-20T19:00:09.183Z,98295.78
2022-11-20T19:06:14.599Z,98297.38
2022-11-20T19:12:26.756Z,98277.63
2022-11-20T19:18:28.864Z,98278.47
2022-11-20T19:24:30.811Z,98271.88
2022-11-20T19:30:33.471Z,98273.19
2022-11-20T19:36:45.323Z,98269.72
2022-11-20T19:42:47.279Z,98266.09
2022-11-20T19:48:49.344Z,98263.81
2022-11-20T19:54:52.458Z,98247.59
2022-11-20T20:00:55.125Z,98248.94
2022-11-20T20:06:57.119Z,98241.03
2022-11-20T20:13:02.145Z,98230.47
2022-11-20T20:19:05.594Z,98226.13
2022-11-20T20:25:07.994Z,98205.44
2022-11-20T20:31:16.618Z,98184.50
2022-11-20T20:37:28.347Z,98176.91
2022-11-20T20:43:59.211Z,98163.56
2022-11-20T20:50:08.994Z,98157.19
2022-11-20T20:56:10.996Z,98142.47
2022-11-20T21:02:13.221Z,98131.44
2022-11-20T21:08:26.461Z,98119.75
2022-11-20T21:14:28.399Z,98113.00
2022-11-20T21:20:49.400Z,98107.84
2022-11-20T21:26:52.336Z,98084.47
2022-11-20T21:32:56.511Z,98073.09
2022-11-20T21:39:02.530Z,98058.06
2022-11-20T21:45:04.859Z,98045.22
2022-11-20T21:51:13.317Z,98041.22
2022-11-20T21:57:15.294Z,98019.66
2022-11-20T22:03:40.008Z,98011.44
2022-11-20T22:09:41.928Z,97998.69
2022-11-20T22:16:00.265Z,97993.94
2022-11-20T22:22:20.404Z,97995.72
2022-11-20T22:28:22.375Z,98004.53
2022-11-20T22:34:24.799Z,97994.25
2022-11-20T22:40:26.944Z,97982.25
2022-11-20T22:46:43.407Z,97973.66
2022-11-20T22:52:45.323Z,97975.31
2022-11-20T22:58:51.289Z,97964.41
2022-11-20T23:04:53.262Z,97967.41
2022-11-20T23:11:03.952Z,97976.78
2022-11-20T23:17:37.914Z,97971.69
2022-11-20T23:23:41.141Z,97967.94
2022-11-20T23:29:43.092Z,97963.25
2022-11-20T23:35:47.794Z,97965.94
2022-11-20T23:41:49.718Z,97957.19
2022-11-20T23:47:51.663Z,97948.88
2022-11-20T23:53:53.614Z,97953.81
2022-11-20T23:59:56.552Z,97950.97
